createdAt,value
2023-06-12T00:00:13.604Z,14.56
2023-06-12T00:02:41.630Z,14.55
2023-06-12T00:05:11.046Z,14.51
2023-06-12T00:07:38.799Z,14.51
2023-06-12T00:10:09.331Z,14.49
2023-06-12T00:12:37.554Z,14.50
2023-06-12T00:15:05.953Z,14.47
2023-06-12T00:17:34.823Z,14.49
2023-06-12T00:20:02.592Z,14.48
2023-06-12T00:22:30.788Z,14.49
2023-06-12T00:24:58.622Z,14.46
2023-06-12T00:27:27.626Z,14.47
2023-06-12T00:29:55.251Z,14.47
2023-06-12T00:32:23.146Z,14.47
2023-06-12T00:34:50.862Z,14.44
2023-06-12T00:37:19.396Z,14.45
2023-06-12T00:39:47.517Z,14.44
2023-06-12T00:42:15.179Z,14.41
2023-06-12T00:44:44.224Z,14.40
2023-06-12T00:47:13.307Z,14.42
2023-06-12T00:49:41.421Z,14.40
2023-06-12T00:52:12.872Z,14.41
2023-06-12T00:54:41.133Z,14.39
2023-06-12T00:57:09.375Z,14.35
2023-06-12T00:59:37.686Z,14.31
2023-06-12T01:02:10.935Z,14.29
2023-06-12T01:04:43.644Z,14.26
2023-06-12T01:07:17.361Z,14.26
2023-06-12T01:09:51.069Z,14.23
2023-06-12T01:12:19.843Z,14.25
2023-06-12T01:14:47.726Z,14.20
2023-06-12T01:17:18.383Z,14.21
2023-06-12T01:19:46.216Z,14.22
2023-06-12T01:22:19.321Z,14.22
2023-06-12T01:25:14.596Z,14.20
2023-06-12T01:27:53.720Z,14.14
2023-06-12T01:30:44.998Z,14.13
2023-06-12T01:33:18.900Z,14.14
2023-06-12T01:35:48.817Z,14.11
2023-06-12T01:38:22.012Z,14.08
2023-06-12T01:40:50.570Z,14.08
2023-06-12T01:43:18.549Z,14.06
2023-06-12T01:45:47.569Z,14.05
2023-06-12T01:48:17.772Z,14.08
2023-06-12T01:50:45.915Z,14.07
2023-06-12T01:53:14.496Z,14.08
2023-06-12T01:55:42.466Z,14.08
2023-06-12T01:58:10.475Z,14.07
2023-06-12T02:00:38.180Z,14.06
2023-06-12T02:03:05.898Z,14.06
2023-06-12T02:05:35.144Z,14.06
2023-06-12T02:08:02.790Z,14.08
2023-06-12T02:10:30.528Z,14.11
2023-06-12T02:12:58.347Z,14.08
2023-06-12T02:15:26.254Z,14.05
2023-06-12T02:17:54.063Z,14.06
2023-06-12T02:20:21.983Z,14.07
2023-06-12T02:22:51.024Z,14.07
2023-06-12T02:25:18.852Z,14.06
2023-06-12T02:27:46.908Z,14.04
2023-06-12T02:30:15.133Z,14.08
2023-06-12T02:32:43.054Z,14.06
2023-06-12T02:35:10.987Z,14.07
2023-06-12T02:37:39.378Z,14.07
2023-06-12T02:40:10.037Z,14.03
2023-06-12T02:42:38.213Z,14.03
2023-06-12T02:45:06.895Z,14.04
2023-06-12T02:47:35.060Z,14.08
2023-06-12T02:50:02.748Z,14.05
2023-06-12T02:52:30.627Z,14.00
2023-06-12T02:54:59.278Z,14.04
2023-06-12T02:57:28.684Z,14.01
2023-06-12T02:59:56.355Z,13.97
2023-06-12T03:02:24.223Z,14.04
2023-06-12T03:04:51.965Z,14.05
2023-06-12T03:07:19.912Z,14.08
2023-06-12T03:09:47.889Z,14.06
2023-06-12T03:12:15.692Z,14.07
2023-06-12T03:14:45.601Z,14.09
2023-06-12T03:17:13.317Z,14.13
2023-06-12T03:19:41.001Z,14.19
2023-06-12T03:22:08.708Z,14.25
2023-06-12T03:24:38.397Z,14.34
2023-06-12T03:27:07.267Z,14.70
2023-06-12T03:29:34.987Z,15.00
2023-06-12T03:32:04.184Z,15.13
2023-06-12T03:34:32.915Z,15.06
2023-06-12T03:37:00.761Z,14.98
2023-06-12T03:39:28.397Z,14.95
2023-06-12T03:41:58.208Z,14.93
2023-06-12T03:44:26.219Z,14.90
2023-06-12T03:46:53.930Z,14.93
2023-06-12T03:49:24.270Z,14.90
2023-06-12T03:51:51.973Z,14.96
2023-06-12T03:54:20.468Z,15.06
2023-06-12T03:56:49.404Z,15.09
2023-06-12T03:59:17.343Z,15.17
2023-06-12T04:01:45.383Z,15.18
2023-06-12T04:04:13.406Z,15.22
2023-06-12T04:06:43.988Z,15.25
2023-06-12T04:09:13.939Z,15.35
2023-06-12T04:11:41.739Z,15.44
2023-06-12T04:14:09.992Z,15.59
2023-06-12T04:16:38.126Z,15.80
2023-06-12T04:19:06.390Z,15.86
2023-06-12T04:21:35.056Z,15.87
2023-06-12T04:24:05.166Z,15.92
2023-06-12T04:26:35.531Z,15.97
2023-06-12T04:29:04.254Z,16.87
2023-06-12T04:31:32.483Z,17.92
2023-06-12T04:34:01.582Z,18.64
2023-06-12T04:36:29.258Z,19.32
2023-06-12T04:38:58.095Z,19.92
2023-06-12T04:41:29.104Z,20.38
2023-06-12T04:44:00.183Z,20.93
2023-06-12T04:46:29.308Z,21.38
2023-06-12T04:48:57.338Z,22.05
2023-06-12T04:51:25.727Z,21.99
2023-06-12T04:53:54.612Z,22.42
2023-06-12T04:56:22.990Z,22.71
2023-06-12T04:58:52.784Z,22.63
2023-06-12T05:01:23.303Z,22.42
2023-06-12T05:03:51.419Z,22.40
2023-06-12T05:06:19.284Z,22.74
2023-06-12T05:08:46.921Z,23.00
2023-06-12T05:11:15.095Z,22.64
2023-06-12T05:13:42.850Z,23.16
2023-06-12T05:16:11.895Z,23.42
2023-06-12T05:18:39.589Z,23.77
2023-06-12T05:21:08.315Z,23.94
2023-06-12T05:23:36.472Z,24.46
2023-06-12T05:26:05.432Z,24.36
2023-06-12T05:28:33.151Z,24.82
2023-06-12T05:31:00.876Z,24.76
2023-06-12T05:33:29.999Z,24.48
2023-06-12T05:35:57.684Z,24.82
2023-06-12T05:38:33.314Z,24.94
2023-06-12T05:41:01.039Z,25.08
2023-06-12T05:43:28.877Z,25.21
2023-06-12T05:45:56.536Z,25.50
2023-06-12T05:48:24.243Z,25.67
2023-06-12T05:50:51.861Z,25.74
2023-06-12T05:53:19.527Z,25.73
2023-06-12T05:55:48.663Z,26.15
2023-06-12T05:58:16.346Z,26.53
2023-06-12T06:00:44.866Z,26.69
2023-06-12T06:03:13.936Z,26.82
2023-06-12T06:05:41.739Z,26.83
2023-06-12T06:08:09.865Z,26.67
2023-06-12T06:10:37.716Z,26.44
2023-06-12T06:13:07.048Z,25.99
2023-06-12T06:15:34.730Z,25.90
2023-06-12T06:18:02.920Z,26.09
2023-06-12T06:20:30.584Z,26.63
2023-06-12T06:22:58.261Z,26.48
2023-06-12T06:25:25.945Z,26.51
2023-06-12T06:27:53.736Z,26.77
2023-06-12T06:30:22.769Z,26.67
2023-06-12T06:32:51.033Z,26.75
2023-06-12T06:35:18.879Z,26.39
2023-06-12T06:37:46.538Z,26.77
2023-06-12T06:40:15.793Z,26.96
2023-06-12T06:42:44.086Z,27.29
2023-06-12T06:45:12.797Z,27.18
2023-06-12T06:47:42.246Z,27.59
2023-06-12T06:50:10.819Z,26.99
2023-06-12T06:52:39.153Z,26.80
2023-06-12T06:55:07.079Z,27.17
2023-06-12T06:57:38.093Z,26.64
2023-06-12T07:00:07.598Z,27.13
2023-06-12T07:02:35.625Z,27.67
2023-06-12T07:05:04.942Z,27.76
2023-06-12T07:07:32.555Z,27.96
2023-06-12T07:10:00.235Z,27.78
2023-06-12T07:12:27.854Z,27.53
2023-06-12T07:14:55.710Z,27.45
2023-06-12T07:17:23.586Z,27.23
2023-06-12T07:19:51.286Z,27.43
2023-06-12T07:22:20.411Z,27.43
2023-06-12T07:24:48.107Z,27.65
2023-06-12T07:27:15.812Z,27.53
2023-06-12T07:29:43.481Z,27.21
2023-06-12T07:32:11.444Z,27.17
2023-06-12T07:34:39.127Z,27.27
2023-06-12T07:37:08.501Z,27.31
2023-06-12T07:39:37.622Z,27.11
2023-06-12T07:42:07.505Z,27.06
2023-06-12T07:44:35.177Z,27.13
2023-06-12T07:47:03.003Z,26.75
2023-06-12T07:49:30.724Z,26.51
2023-06-12T07:51:58.359Z,26.54
2023-06-12T07:54:26.042Z,26.32
2023-06-12T07:56:55.064Z,26.23
2023-06-12T07:59:23.033Z,25.63
2023-06-12T08:01:50.813Z,25.58
2023-06-12T08:04:18.545Z,25.20
2023-06-12T08:06:49.179Z,24.95
2023-06-12T08:09:16.925Z,24.82
2023-06-12T08:11:44.804Z,24.85
2023-06-12T08:14:13.954Z,24.61
2023-06-12T08:16:42.892Z,24.69
2023-06-12T08:19:10.839Z,24.39
2023-06-12T08:21:38.511Z,23.96
2023-06-12T08:24:08.875Z,23.86
2023-06-12T08:26:36.624Z,23.85
2023-06-12T08:29:04.609Z,23.76
2023-06-12T08:31:35.126Z,23.80
2023-06-12T08:34:02.934Z,23.75
2023-06-12T08:36:30.649Z,23.68
2023-06-12T08:38:58.285Z,23.86
2023-06-12T08:41:28.912Z,24.15
2023-06-12T08:44:00.667Z,24.17
2023-06-12T08:46:31.462Z,24.35
2023-06-12T08:49:02.138Z,24.27
2023-06-12T08:51:31.779Z,24.10
2023-06-12T08:54:02.008Z,24.12
2023-06-12T08:56:30.356Z,24.15
2023-06-12T08:58:59.031Z,23.90
2023-06-12T09:01:30.129Z,23.85
2023-06-12T09:04:02.858Z,24.05
2023-06-12T09:06:35.603Z,24.01
2023-06-12T09:09:04.221Z,24.07
2023-06-12T09:11:32.045Z,24.23
2023-06-12T09:14:02.712Z,24.20
2023-06-12T09:16:30.451Z,24.03
2023-06-12T09:18:58.686Z,24.14
2023-06-12T09:21:27.831Z,24.00
2023-06-12T09:23:56.920Z,24.17
2023-06-12T09:26:24.740Z,24.07
2023-06-12T09:28:53.689Z,24.21
2023-06-12T09:31:22.052Z,24.34
2023-06-12T09:33:52.885Z,24.42
2023-06-12T09:36:22.741Z,24.45
2023-06-12T09:38:52.396Z,24.46
2023-06-12T09:41:25.706Z,24.35
2023-06-12T09:43:54.306Z,24.60
2023-06-12T09:46:27.392Z,24.70
2023-06-12T09:48:58.306Z,24.73
2023-06-12T09:51:26.231Z,24.69
2023-06-12T09:53:58.423Z,24.94
2023-06-12T09:56:27.045Z,24.87
2023-06-12T09:58:56.033Z,24.92
2023-06-12T10:01:27.729Z,25.05
2023-06-12T10:04:00.676Z,24.98
2023-06-12T10:06:30.002Z,25.06
2023-06-12T10:08:59.898Z,25.06
2023-06-12T10:11:28.010Z,25.28
2023-06-12T10:13:57.236Z,25.21
2023-06-12T10:16:27.273Z,25.17
2023-06-12T10:18:56.960Z,25.08
2023-06-12T10:21:25.443Z,25.18
2023-06-12T10:23:53.844Z,25.50
2023-06-12T10:26:24.282Z,25.48
2023-06-12T10:28:52.133Z,25.59
2023-06-12T10:31:20.512Z,25.52
2023-06-12T10:34:11.308Z,25.50
2023-06-12T10:36:41.075Z,25.46
2023-06-12T10:39:17.395Z,25.59
2023-06-12T10:42:00.691Z,25.52
2023-06-12T10:44:42.475Z,25.62
2023-06-12T10:47:20.610Z,25.59
2023-06-12T10:49:59.940Z,25.62
2023-06-12T10:52:28.394Z,25.44
2023-06-12T10:55:21.687Z,25.47
2023-06-12T10:57:54.781Z,25.56
2023-06-12T11:00:24.377Z,25.45
2023-06-12T11:03:00.542Z,25.51
2023-06-12T11:05:29.401Z,25.61
2023-06-12T11:07:58.968Z,25.60
2023-06-12T11:10:27.492Z,25.73
2023-06-12T11:12:56.722Z,25.55
2023-06-12T11:15:24.911Z,25.59
2023-06-12T11:17:53.437Z,25.72
2023-06-12T11:20:23.575Z,25.65
2023-06-12T11:22:59.290Z,25.35
2023-06-12T11:25:27.191Z,25.57
2023-06-12T11:27:56.503Z,25.68
2023-06-12T11:30:33.217Z,25.42
2023-06-12T11:33:08.372Z,25.30
2023-06-12T11:35:41.346Z,25.41
2023-06-12T11:40:41.405Z,25.45
2023-06-12T11:43:10.994Z,25.50
2023-06-12T11:45:43.112Z,25.58
2023-06-12T11:50:48.166Z,25.57
2023-06-12T11:53:17.045Z,25.52
2023-06-12T11:58:22.579Z,25.56
2023-06-12T12:00:53.162Z,25.72
2023-06-12T12:03:22.541Z,25.78
2023-06-12T12:05:52.570Z,25.92
2023-06-12T12:08:20.520Z,25.86
2023-06-12T12:10:48.872Z,25.95
2023-06-12T12:13:16.559Z,26.04
2023-06-12T12:15:46.835Z,25.88
2023-06-12T12:18:15.117Z,25.84
2023-06-12T12:20:44.450Z,25.81
2023-06-12T12:23:14.296Z,25.83
2023-06-12T12:25:43.034Z,25.86
2023-06-12T12:28:10.895Z,25.97
2023-06-12T12:30:38.830Z,26.10
2023-06-12T12:33:07.874Z,26.18
2023-06-12T12:35:35.643Z,26.29
2023-06-12T12:38:04.540Z,26.25
2023-06-12T12:40:32.235Z,26.46
2023-06-12T12:43:00.038Z,26.62
2023-06-12T12:45:29.172Z,26.53
2023-06-12T12:47:56.951Z,26.39
2023-06-12T12:50:28.548Z,26.60
2023-06-12T12:52:57.665Z,26.74
2023-06-12T12:55:25.362Z,26.81
2023-06-12T12:57:57.020Z,26.83
2023-06-12T13:00:38.208Z,26.91
2023-06-12T13:03:06.146Z,26.88
2023-06-12T13:05:35.280Z,27.00
2023-06-12T13:08:03.214Z,27.00
2023-06-12T13:10:30.935Z,26.87
2023-06-12T13:12:58.602Z,26.65
2023-06-12T13:15:26.233Z,26.84
2023-06-12T13:17:54.339Z,26.85
2023-06-12T13:20:22.133Z,26.83
2023-06-12T13:22:51.157Z,26.76
2023-06-12T13:25:19.595Z,26.83
2023-06-12T13:27:47.367Z,26.67
2023-06-12T13:30:15.434Z,26.71
2023-06-12T13:32:43.445Z,26.79
2023-06-12T13:35:11.562Z,26.78
2023-06-12T13:37:39.597Z,26.74
2023-06-12T13:40:14.342Z,26.65
2023-06-12T13:42:44.274Z,26.88
2023-06-12T13:45:12.989Z,26.97
2023-06-12T13:47:41.059Z,26.88
2023-06-12T13:50:12.246Z,27.09
2023-06-12T13:52:40.694Z,27.05
2023-06-12T13:55:11.001Z,27.07
2023-06-12T13:57:40.641Z,27.10
2023-06-12T14:00:09.932Z,27.12
2023-06-12T14:02:37.876Z,27.01
2023-06-12T14:05:10.536Z,27.02
2023-06-12T14:07:39.095Z,27.00
2023-06-12T14:10:09.666Z,27.24
2023-06-12T14:12:37.516Z,27.25
2023-06-12T14:15:07.763Z,27.22
2023-06-12T14:17:37.700Z,27.12
2023-06-12T14:20:06.907Z,27.13
2023-06-12T14:22:34.957Z,26.93
2023-06-12T14:25:02.811Z,27.05
2023-06-12T14:27:32.708Z,27.27
2023-06-12T14:30:00.856Z,27.48
2023-06-12T14:32:28.730Z,27.57
2023-06-12T14:34:56.460Z,27.44
2023-06-12T14:37:24.187Z,27.74
2023-06-12T14:39:51.844Z,27.61
2023-06-12T14:42:19.596Z,27.58
2023-06-12T14:44:48.607Z,27.41
2023-06-12T14:47:16.282Z,27.35
2023-06-12T14:49:44.022Z,27.37
2023-06-12T14:52:23.902Z,27.16
2023-06-12T14:54:59.329Z,27.06
2023-06-12T14:57:27.091Z,27.21
2023-06-12T14:59:56.245Z,27.13
2023-06-12T15:02:24.211Z,27.05
2023-06-12T15:04:53.201Z,26.91
2023-06-12T15:07:21.133Z,26.76
2023-06-12T15:09:48.910Z,26.77
2023-06-12T15:12:16.576Z,26.72
2023-06-12T15:14:44.215Z,26.62
2023-06-12T15:17:13.432Z,26.51
2023-06-12T15:19:41.095Z,26.68
2023-06-12T15:22:08.947Z,26.38
2023-06-12T15:24:36.849Z,26.36
2023-06-12T15:27:04.858Z,26.39
2023-06-12T15:29:32.633Z,26.52
2023-06-12T15:32:05.439Z,26.48
2023-06-12T15:34:34.582Z,26.60
2023-06-12T15:37:02.252Z,26.66
2023-06-12T15:39:29.957Z,26.59
2023-06-12T15:41:57.725Z,26.52
2023-06-12T15:44:25.371Z,26.27
2023-06-12T15:46:53.532Z,26.33
2023-06-12T15:49:21.184Z,26.44
2023-06-12T15:51:50.199Z,26.16
2023-06-12T15:54:17.948Z,26.05
2023-06-12T15:56:45.684Z,26.11
2023-06-12T15:59:13.340Z,26.02
2023-06-12T16:01:41.040Z,25.94
2023-06-12T16:04:11.533Z,25.89
2023-06-12T16:06:39.474Z,25.80
2023-06-12T16:09:08.463Z,25.77
2023-06-12T16:11:36.146Z,25.94
2023-06-12T16:14:04.574Z,25.85
2023-06-12T16:16:32.341Z,25.73
2023-06-12T16:18:59.967Z,25.66
2023-06-12T16:21:27.719Z,25.72
2023-06-12T16:23:55.463Z,25.61
2023-06-12T16:26:24.486Z,25.74
2023-06-12T16:28:52.585Z,25.90
2023-06-12T16:31:20.735Z,25.83
2023-06-12T16:33:48.702Z,25.75
2023-06-12T16:36:18.727Z,25.68
2023-06-12T16:38:46.484Z,25.56
2023-06-12T16:41:14.112Z,25.35
2023-06-12T16:43:43.208Z,25.41
2023-06-12T16:46:11.056Z,25.33
2023-06-12T16:48:38.822Z,25.30
2023-06-12T16:51:07.889Z,25.10
2023-06-12T16:53:35.591Z,25.02
2023-06-12T16:56:04.043Z,25.06
2023-06-12T16:58:33.830Z,25.09
2023-06-12T17:01:03.785Z,25.01
2023-06-12T17:03:31.602Z,25.05
2023-06-12T17:05:59.976Z,25.00
2023-06-12T17:08:29.033Z,24.89
2023-06-12T17:10:56.997Z,24.90
2023-06-12T17:13:24.656Z,24.84
2023-06-12T17:15:52.333Z,24.84
2023-06-12T17:18:21.565Z,24.78
2023-06-12T17:20:49.326Z,24.78
2023-06-12T17:23:17.238Z,24.57
2023-06-12T17:25:44.948Z,24.49
2023-06-12T17:28:12.591Z,24.36
2023-06-12T17:30:40.771Z,24.37
2023-06-12T17:33:08.900Z,24.35
2023-06-12T17:35:38.431Z,24.39
2023-06-12T17:38:06.184Z,24.16
2023-06-12T17:40:34.272Z,24.14
2023-06-12T17:43:02.020Z,24.05
2023-06-12T17:45:29.801Z,24.14
2023-06-12T17:47:57.620Z,24.03
2023-06-12T17:50:25.547Z,23.91
2023-06-12T17:52:54.566Z,23.97
2023-06-12T17:55:22.293Z,23.84
2023-06-12T17:57:49.934Z,23.66
2023-06-12T18:00:18.977Z,23.60
2023-06-12T18:02:46.677Z,23.51
2023-06-12T18:05:14.695Z,23.43
2023-06-12T18:07:42.521Z,23.36
2023-06-12T18:10:12.937Z,23.36
2023-06-12T18:12:40.834Z,23.30
2023-06-12T18:15:09.933Z,23.34
2023-06-12T18:17:37.871Z,23.27
2023-06-12T18:20:06.473Z,23.19
2023-06-12T18:22:34.221Z,23.06
2023-06-12T18:25:02.163Z,22.97
2023-06-12T18:27:31.971Z,22.81
2023-06-12T18:30:00.105Z,22.85
2023-06-12T18:32:27.790Z,22.94
2023-06-12T18:34:56.208Z,23.10
2023-06-12T18:37:24.002Z,23.23
2023-06-12T18:39:51.659Z,23.29
2023-06-12T18:42:19.387Z,23.36
2023-06-12T18:44:49.286Z,23.53
2023-06-12T18:47:17.019Z,23.68
2023-06-12T18:49:44.675Z,23.78
2023-06-12T18:52:12.600Z,23.62
2023-06-12T18:54:40.332Z,23.69
2023-06-12T18:57:09.194Z,23.50
2023-06-12T18:59:38.067Z,23.52
2023-06-12T19:02:07.911Z,23.47
2023-06-12T19:04:36.976Z,23.56
2023-06-12T19:07:08.462Z,23.39
2023-06-12T19:09:37.026Z,23.22
2023-06-12T19:12:05.051Z,23.14
2023-06-12T19:14:33.285Z,22.93
2023-06-12T19:17:01.037Z,22.78
2023-06-12T19:19:30.160Z,22.68
2023-06-12T19:21:57.804Z,22.40
2023-06-12T19:24:26.023Z,22.17
2023-06-12T19:26:53.936Z,21.84
2023-06-12T19:29:21.799Z,21.59
2023-06-12T19:31:49.791Z,21.29
2023-06-12T19:34:17.462Z,21.00
2023-06-12T19:36:46.540Z,20.71
2023-06-12T19:39:14.202Z,20.46
2023-06-12T19:41:42.053Z,20.20
2023-06-12T19:44:09.868Z,20.04
2023-06-12T19:46:37.582Z,19.87
2023-06-12T19:49:05.416Z,19.68
2023-06-12T19:51:34.131Z,19.50
2023-06-12T19:54:03.689Z,19.40
2023-06-12T19:56:31.417Z,19.25
2023-06-12T19:58:59.037Z,19.08
2023-06-12T20:01:26.705Z,18.97
2023-06-12T20:03:54.484Z,18.88
2023-06-12T20:06:22.330Z,18.79
2023-06-12T20:08:50.207Z,18.64
2023-06-12T20:11:19.277Z,18.60
2023-06-12T20:13:47.079Z,18.49
2023-06-12T20:16:15.200Z,18.40
2023-06-12T20:18:42.895Z,18.31
2023-06-12T20:21:11.182Z,18.23
2023-06-12T20:23:38.970Z,18.15
2023-06-12T20:26:07.049Z,18.06
2023-06-12T20:28:36.246Z,17.97
2023-06-12T20:31:04.127Z,17.91
2023-06-12T20:33:31.791Z,17.81
2023-06-12T20:36:01.551Z,17.74
2023-06-12T20:38:29.255Z,17.69
2023-06-12T20:40:56.958Z,17.65
2023-06-12T20:43:24.631Z,17.60
2023-06-12T20:45:55.114Z,17.57
2023-06-12T20:48:23.412Z,17.47
2023-06-12T20:50:51.191Z,17.42
2023-06-12T20:53:18.879Z,17.39
2023-06-12T20:55:46.618Z,17.34
2023-06-12T20:58:15.112Z,17.28
2023-06-12T21:00:44.332Z,17.25
2023-06-12T21:03:13.471Z,17.19
2023-06-12T21:05:41.405Z,17.17
2023-06-12T21:08:09.330Z,17.12
2023-06-12T21:10:37.154Z,17.06
2023-06-12T21:13:04.826Z,17.03
2023-06-12T21:15:32.614Z,17.01
2023-06-12T21:18:00.531Z,16.98
2023-06-12T21:20:29.644Z,16.92
2023-06-12T21:22:59.261Z,16.91
2023-06-12T21:25:27.085Z,16.86
2023-06-12T21:27:56.324Z,16.84
2023-06-12T21:30:24.846Z,16.79
2023-06-12T21:32:53.441Z,16.73
2023-06-12T21:35:21.300Z,16.70
2023-06-12T21:37:50.599Z,16.67
2023-06-12T21:40:18.826Z,16.62
2023-06-12T21:42:46.714Z,16.61
2023-06-12T21:45:14.675Z,16.59
2023-06-12T21:47:42.600Z,16.54
2023-06-12T21:50:10.905Z,16.51
2023-06-12T21:52:38.696Z,16.48
2023-06-12T21:55:08.440Z,16.45
2023-06-12T21:57:36.181Z,16.42
2023-06-12T22:00:06.149Z,16.39
2023-06-12T22:02:33.824Z,16.34
2023-06-12T22:05:01.624Z,16.31
2023-06-12T22:07:29.474Z,16.29
2023-06-12T22:09:57.286Z,16.25
2023-06-12T22:12:26.366Z,16.19
2023-06-12T22:14:54.048Z,16.13
2023-06-12T22:17:21.737Z,16.11
2023-06-12T22:19:49.444Z,16.04
2023-06-12T22:22:17.199Z,16.05
2023-06-12T22:24:44.864Z,16.00
2023-06-12T22:27:12.538Z,15.97
2023-06-12T22:29:41.601Z,15.98
2023-06-12T22:32:10.504Z,15.93
2023-06-12T22:34:38.182Z,15.91
2023-06-12T22:37:06.203Z,15.89
2023-06-12T22:39:34.482Z,15.88
2023-06-12T22:42:02.325Z,15.83
2023-06-12T22:44:29.957Z,15.80
2023-06-12T22:47:00.663Z,15.79
2023-06-12T22:49:29.936Z,15.76
2023-06-12T22:51:58.445Z,15.73
2023-06-12T22:54:26.953Z,15.71
2023-06-12T22:56:55.019Z,15.72
2023-06-12T22:59:22.691Z,15.68
2023-06-12T23:01:50.933Z,15.68
2023-06-12T23:04:20.025Z,15.68
2023-06-12T23:06:48.208Z,15.66
2023-06-12T23:09:16.130Z,15.64
2023-06-12T23:11:43.860Z,15.58
2023-06-12T23:14:11.623Z,15.58
2023-06-12T23:16:39.832Z,15.54
2023-06-12T23:19:11.871Z,15.53
2023-06-12T23:21:41.050Z,15.49
2023-06-12T23:24:13.074Z,15.52
2023-06-12T23:26:42.156Z,15.49
2023-06-12T23:29:09.963Z,15.46
2023-06-12T23:31:37.676Z,15.40
2023-06-12T23:34:06.070Z,15.40
2023-06-12T23:36:40.633Z,15.39
2023-06-12T23:39:12.199Z,15.37
2023-06-12T23:41:40.334Z,15.37
2023-06-12T23:44:07.966Z,15.33
2023-06-12T23:46:35.678Z,15.30
2023-06-12T23:49:03.325Z,15.25
2023-06-12T23:51:31.328Z,15.21
2023-06-12T23:53:58.981Z,15.18
2023-06-12T23:56:28.332Z,15.16
2023-06-12T23:58:56.305Z,15.11
